Time;durP1;ratioP1;P1;durP2;ratioP2;P2;SDS_P1;SDS_P2;PMS_P1;PMS_P2;Temp;Humidity;BMP_temperature;BMP_pressure;BME280_temperature;BME280_humidity;BME280_pressure;Samples;Min_cycle;Max_cycle;Signal;HPM_P1;HPM_P2
2021/12/17 00:00:26;;;;;;;2.15;0.93;;;20.80;86.70;;;;;;10537363;28;20051;-67
2021/12/17 00:05:43;;;;;;;1.65;1.00;;;20.70;86.90;;;;;;10532044;28;20044;-66
2021/12/17 00:10:45;;;;;;;1.38;0.90;;;20.60;86.90;;;;;;10522686;28;20043;-67
2021/12/17 00:15:47;;;;;;;1.00;0.82;;;20.50;87.00;;;;;;10539412;28;20056;-66
2021/12/17 00:52:48;;;;;;;1.33;0.88;;;20.00;87.50;;;;;;10515474;28;20044;-67
2021/12/17 00:57:49;;;;;;;1.70;1.00;;;20.00;87.70;;;;;;10519872;28;20048;-66
2021/12/17 01:02:51;;;;;;;1.13;0.80;;;19.90;87.70;;;;;;10536881;28;20055;-66
2021/12/17 01:07:52;;;;;;;1.25;0.80;;;19.80;87.80;;;;;;10534301;28;20040;-66
2021/12/17 01:12:54;;;;;;;1.30;0.80;;;19.80;87.80;;;;;;10495926;28;20135;-66
2021/12/17 01:18:00;;;;;;;1.90;0.88;;;19.70;87.90;;;;;;10514083;28;20063;-66
2021/12/17 01:23:31;;;;;;;1.40;0.77;;;19.70;88.00;;;;;;10512568;28;20047;-67
2021/12/17 01:44:30;;;;;;;0.82;0.70;;;19.50;88.10;;;;;;10530860;28;20040;-67
2021/12/17 02:00:08;;;;;;;1.15;0.80;;;19.30;88.20;;;;;;10488020;28;20138;-67
2021/12/17 02:05:09;;;;;;;1.42;0.82;;;19.30;88.20;;;;;;10508298;28;20044;-66
2021/12/17 02:31:28;;;;;;;1.55;0.75;;;19.10;88.40;;;;;;10533185;28;20044;-66
2021/12/17 02:36:33;;;;;;;0.88;0.60;;;19.10;88.50;;;;;;10528777;28;20059;-66
2021/12/17 02:46:53;;;;;;;0.70;0.60;;;19.00;88.60;;;;;;10524603;28;20464;-66
2021/12/17 02:51:55;;;;;;;1.05;0.75;;;19.00;88.50;;;;;;10506890;28;20485;-67
2021/12/17 02:56:56;;;;;;;0.90;0.60;;;18.90;88.60;;;;;;10530318;28;20059;-66
2021/12/17 03:01:57;;;;;;;1.77;0.57;;;18.90;88.60;;;;;;10503116;28;20048;-66
2021/12/17 03:06:59;;;;;;;1.10;0.60;;;18.80;88.60;;;;;;10524847;28;20401;-66
2021/12/17 03:12:00;;;;;;;0.75;0.50;;;18.80;88.60;;;;;;10509119;28;20052;-66
2021/12/17 03:17:09;;;;;;;0.95;0.70;;;18.80;88.70;;;;;;10497517;28;20056;-66
2021/12/17 03:27:29;;;;;;;1.05;0.57;;;18.70;88.70;;;;;;10493614;28;20448;-66
2021/12/17 03:32:31;;;;;;;1.17;0.45;;;18.70;88.70;;;;;;10505003;28;20519;-66
2021/12/17 03:37:32;;;;;;;1.20;0.73;;;18.60;88.70;;;;;;10516029;28;20560;-66
2021/12/17 03:42:34;;;;;;;1.00;0.50;;;18.60;88.70;;;;;;10536516;28;20484;-66
2021/12/17 03:47:35;;;;;;;1.05;0.60;;;18.60;88.80;;;;;;10525044;28;20437;-66
2021/12/17 03:52:37;;;;;;;0.70;0.50;;;18.50;88.80;;;;;;10535453;28;20051;-66
2021/12/17 03:57:38;;;;;;;0.77;0.47;;;18.50;89.50;;;;;;10510889;28;20044;-66
2021/12/17 04:02:40;;;;;;;0.88;0.60;;;18.50;88.90;;;;;;10530537;28;20051;-66
2021/12/17 04:07:41;;;;;;;0.90;0.52;;;18.50;88.90;;;;;;10533609;28;20424;-66
2021/12/17 04:12:51;;;;;;;0.60;0.50;;;18.40;89.00;;;;;;10504150;28;20413;-66
2021/12/17 04:17:55;;;;;;;0.82;0.50;;;18.40;89.00;;;;;;10528008;28;20056;-66
2021/12/17 04:22:57;;;;;;;0.60;0.35;;;18.40;89.00;;;;;;10527051;28;20516;-66
2021/12/17 04:27:58;;;;;;;1.05;0.60;;;18.40;89.00;;;;;;10530731;28;20044;-66
2021/12/17 04:32:59;;;;;;;0.70;0.40;;;18.40;89.10;;;;;;10516964;28;20504;-66
2021/12/17 04:38:03;;;;;;;1.15;0.57;;;18.30;89.00;;;;;;10498457;28;20488;-66
2021/12/17 04:43:15;;;;;;;0.70;0.50;;;18.30;89.10;;;;;;10521713;28;20082;-66
2021/12/17 04:58:55;;;;;;;0.88;0.57;;;18.20;89.10;;;;;;10524795;28;20045;-66
2021/12/17 05:03:57;;;;;;;1.35;0.60;;;18.20;89.10;;;;;;10509596;28;20052;-66
2021/12/17 05:09:06;;;;;;;0.85;0.50;;;18.20;89.20;;;;;;10512411;28;20040;-66
2021/12/17 05:19:38;;;;;;;0.38;0.30;;;18.10;89.10;;;;;;10515203;28;20103;-66
2021/12/17 05:24:40;;;;;;;0.65;0.40;;;18.10;89.10;;;;;;10510200;28;20087;-66
2021/12/17 05:29:41;;;;;;;0.93;0.40;;;18.10;89.20;;;;;;10532008;28;20048;-66
2021/12/17 05:34:43;;;;;;;0.30;0.30;;;18.00;89.20;;;;;;10534904;28;20048;-66
2021/12/17 05:39:44;;;;;;;0.50;0.40;;;18.00;89.30;;;;;;10525619;28;20404;-66
2021/12/17 05:44:51;;;;;;;0.55;0.40;;;18.00;89.30;;;;;;10536153;28;20405;-66
2021/12/17 05:49:53;;;;;;;0.55;0.30;;;17.90;89.20;;;;;;10506877;28;20082;-66
2021/12/17 05:54:54;;;;;;;0.93;0.40;;;17.90;89.20;;;;;;10525505;28;20055;-66
2021/12/17 05:59:56;;;;;;;0.38;0.30;;;17.90;89.20;;;;;;10519159;28;20052;-66
2021/12/17 06:04:59;;;;;;;0.50;0.40;;;17.90;89.20;;;;;;10533151;28;20055;-66
2021/12/17 06:10:03;;;;;;;0.77;0.57;;;17.90;89.30;;;;;;10525991;28;20083;-66
2021/12/17 06:15:05;;;;;;;0.30;0.20;;;17.80;89.30;;;;;;10506959;28;20445;-66
2021/12/17 06:20:06;;;;;;;0.85;0.30;;;17.80;89.30;;;;;;10521846;28;20554;-66
2021/12/17 06:25:08;;;;;;;0.30;0.30;;;17.80;89.30;;;;;;10517107;28;20622;-67
2021/12/17 06:30:09;;;;;;;0.35;0.25;;;17.80;89.40;;;;;;10517742;28;20500;-66
2021/12/17 06:35:11;;;;;;;0.50;0.30;;;17.70;89.40;;;;;;10497956;28;20428;-66
2021/12/17 06:40:12;;;;;;;0.50;0.22;;;17.80;89.50;;;;;;10502842;28;20524;-66
2021/12/17 06:45:21;;;;;;;0.40;0.30;;;17.70;89.40;;;;;;10525232;28;20500;-66
2021/12/17 07:01:13;;;;;;;0.65;0.40;;;17.70;89.40;;;;;;10499749;28;20130;-66
2021/12/17 07:06:26;;;;;;;0.50;0.30;;;17.60;89.40;;;;;;10522622;28;20509;-66
2021/12/17 07:11:52;;;;;;;0.57;0.30;;;17.60;89.40;;;;;;10516446;28;20048;-66
2021/12/17 07:17:15;;;;;;;0.65;0.32;;;17.60;89.50;;;;;;10519336;28;20052;-66
2021/12/17 07:22:24;;;;;;;0.40;0.20;;;17.50;89.50;;;;;;10533652;28;20044;-66
2021/12/17 07:33:04;;;;;;;0.45;0.20;;;17.60;90.20;;;;;;10499533;28;20044;-66
2021/12/17 07:43:35;;;;;;;0.43;0.20;;;17.50;90.00;;;;;;10499407;28;20037;-66
2021/12/17 07:48:36;;;;;;;0.20;0.20;;;17.50;90.10;;;;;;10499261;28;20049;-66
2021/12/17 07:53:38;;;;;;;0.50;0.20;;;17.50;90.00;;;;;;10499181;28;20067;-66
2021/12/17 07:58:39;;;;;;;0.30;0.20;;;17.40;90.00;;;;;;10498974;28;20122;-66
2021/12/17 08:03:41;;;;;;;1.30;0.30;;;17.40;90.00;;;;;;10498643;28;20071;-66
2021/12/17 08:08:42;;;;;;;0.30;0.20;;;17.40;90.00;;;;;;10498694;28;20074;-66
2021/12/17 08:13:45;;;;;;;0.32;0.30;;;17.30;90.00;;;;;;10498012;28;20497;-66
2021/12/17 08:19:07;;;;;;;0.30;0.20;;;17.40;90.00;;;;;;10497821;28;20052;-66
2021/12/17 08:24:44;;;;;;;0.40;0.32;;;17.30;90.00;;;;;;10498076;28;20439;-66
2021/12/17 08:29:53;;;;;;;0.30;0.22;;;17.40;90.00;;;;;;10496855;28;20044;-66
2021/12/17 08:34:54;;;;;;;0.50;0.20;;;17.30;90.00;;;;;;10496957;28;20053;-66
2021/12/17 08:39:56;;;;;;;0.75;0.30;;;17.30;90.00;;;;;;10497153;28;20044;-66
2021/12/17 08:44:59;;;;;;;0.70;0.30;;;17.30;90.10;;;;;;10496926;28;20040;-66
2021/12/17 08:50:05;;;;;;;0.60;0.30;;;17.30;90.10;;;;;;10496860;28;20048;-66
2021/12/17 08:55:07;;;;;;;0.40;0.30;;;17.30;90.10;;;;;;10496734;28;20508;-66
2021/12/17 09:00:08;;;;;;;0.73;0.30;;;17.30;90.00;;;;;;10496263;28;20053;-66
2021/12/17 09:05:10;;;;;;;0.35;0.35;;;17.30;90.10;;;;;;10496238;28;20048;-66
2021/12/17 09:10:12;;;;;;;1.27;0.40;;;17.20;90.10;;;;;;10496047;28;20044;-66
2021/12/17 09:15:14;;;;;;;0.50;0.30;;;17.20;90.10;;;;;;10495404;28;20052;-66
2021/12/17 09:20:15;;;;;;;0.73;0.35;;;17.20;90.10;;;;;;10495350;28;20048;-66
2021/12/17 09:25:17;;;;;;;0.35;0.20;;;17.20;90.10;;;;;;10495936;28;20440;-66
2021/12/17 09:30:18;;;;;;;0.20;0.20;;;17.10;90.10;;;;;;10494803;28;20456;-66
2021/12/17 09:35:21;;;;;;;0.50;0.20;;;17.20;90.10;;;;;;10494679;28;20052;-66
2021/12/17 09:40:22;;;;;;;0.38;0.35;;;17.10;90.10;;;;;;10494941;28;20050;-66
2021/12/17 09:45:24;;;;;;;0.55;0.32;;;17.10;90.10;;;;;;10494543;28;20063;-66
2021/12/17 09:50:25;;;;;;;1.10;0.50;;;17.10;90.10;;;;;;10494479;28;20059;-66
2021/12/17 09:55:27;;;;;;;0.43;0.30;;;17.10;90.20;;;;;;10493810;28;20037;-66
2021/12/17 10:00:28;;;;;;;0.20;0.20;;;17.10;90.20;;;;;;10494352;28;20449;-66
2021/12/17 10:05:30;;;;;;;0.70;0.50;;;17.10;90.20;;;;;;10494173;28;20489;-66
2021/12/17 10:10:31;;;;;;;0.85;0.57;;;17.10;90.20;;;;;;10494081;28;20040;-66
2021/12/17 10:15:34;;;;;;;0.88;0.50;;;17.10;90.20;;;;;;10493829;28;20052;-66
2021/12/17 10:20:35;;;;;;;0.65;0.40;;;17.20;90.20;;;;;;10493701;28;20041;-66
2021/12/17 10:25:37;;;;;;;0.60;0.50;;;17.20;90.20;;;;;;10495249;28;20048;-65
2021/12/17 10:30:38;;;;;;;0.73;0.50;;;17.20;90.20;;;;;;10534832;28;20048;-66
2021/12/17 10:35:44;;;;;;;0.93;0.70;;;17.10;90.10;;;;;;10534785;28;20063;-65
2021/12/17 10:40:49;;;;;;;1.70;0.80;;;17.10;90.20;;;;;;10534881;28;20136;-66
2021/12/17 10:46:00;;;;;;;1.02;0.50;;;17.20;90.10;;;;;;10534884;28;20055;-66
2021/12/17 10:51:02;;;;;;;0.77;0.60;;;17.20;90.10;;;;;;10539688;28;20047;-67
2021/12/17 10:56:03;;;;;;;0.40;0.30;;;17.20;90.10;;;;;;10542807;28;20134;-67
2021/12/17 11:01:07;;;;;;;0.95;0.40;;;17.20;90.10;;;;;;10542677;28;20048;-66
2021/12/17 11:06:08;;;;;;;1.15;0.60;;;17.20;90.10;;;;;;10542535;28;20665;-66
2021/12/17 11:11:11;;;;;;;1.30;0.40;;;17.20;90.10;;;;;;10542986;28;20055;-67
2021/12/17 11:16:13;;;;;;;0.65;0.40;;;17.30;90.00;;;;;;10542799;28;20056;-67
2021/12/17 11:21:14;;;;;;;0.43;0.30;;;17.20;90.00;;;;;;10542388;28;20093;-67
2021/12/17 11:26:16;;;;;;;0.75;0.40;;;17.20;90.10;;;;;;10522239;28;20052;-68
2021/12/17 11:31:17;;;;;;;0.80;0.30;;;17.20;90.10;;;;;;10519247;28;20044;-67
2021/12/17 11:36:19;;;;;;;1.60;0.38;;;17.40;90.10;;;;;;10527214;28;20063;-67
2021/12/17 11:41:22;;;;;;;0.63;0.30;;;17.80;90.00;;;;;;10512069;28;20048;-67
2021/12/17 11:46:23;;;;;;;0.20;0.17;;;18.30;89.30;;;;;;10512381;28;20048;-66
2021/12/17 11:51:25;;;;;;;0.40;0.13;;;19.00;88.50;;;;;;10525184;28;20055;-67
2021/12/17 11:56:26;;;;;;;1.17;0.20;;;19.60;87.60;;;;;;10533560;28;20056;-67
2021/12/17 12:01:28;;;;;;;0.25;0.13;;;20.10;86.90;;;;;;10507136;28;20056;-67
2021/12/17 12:06:29;;;;;;;0.20;0.10;;;20.70;86.20;;;;;;10508671;28;20060;-67
2021/12/17 12:11:31;;;;;;;0.47;0.13;;;20.90;85.70;;;;;;10506018;28;20049;-66
2021/12/17 12:16:32;;;;;;;0.13;0.10;;;21.20;85.30;;;;;;10506769;28;20055;-66
2021/12/17 12:21:34;;;;;;;0.43;0.00;;;21.30;85.10;;;;;;10534386;28;20493;-67
2021/12/17 12:26:37;;;;;;;0.65;0.10;;;21.40;84.90;;;;;;10502580;28;20060;-67
2021/12/17 12:31:38;;;;;;;0.22;0.10;;;21.50;84.80;;;;;;10523329;28;20489;-67
2021/12/17 12:36:40;;;;;;;1.55;0.05;;;21.50;84.80;;;;;;10516802;28;20055;-66
2021/12/17 12:41:41;;;;;;;0.28;0.10;;;21.50;84.70;;;;;;10502197;28;20055;-67
2021/12/17 12:46:42;;;;;;;0.20;0.10;;;21.50;84.70;;;;;;10507168;28;20390;-67
2021/12/17 12:51:44;;;;;;;0.30;0.13;;;21.60;84.60;;;;;;10517376;28;20469;-67
2021/12/17 12:56:45;;;;;;;0.10;0.10;;;21.60;84.60;;;;;;10533424;28;20048;-67
2021/12/17 13:01:47;;;;;;;0.13;0.10;;;21.60;84.60;;;;;;10531923;28;20052;-67
2021/12/17 13:06:48;;;;;;;0.20;0.20;;;21.60;84.60;;;;;;10532835;28;20059;-67
2021/12/17 13:11:50;;;;;;;0.45;0.13;;;21.60;84.50;;;;;;10527902;28;20055;-67
2021/12/17 13:17:16;;;;;;;0.20;0.10;;;21.60;84.50;;;;;;10503759;28;20067;-67
2021/12/17 13:22:32;;;;;;;2.08;0.20;;;21.60;84.40;;;;;;10498054;28;20502;-66
2021/12/17 13:27:33;;;;;;;1.52;0.30;;;21.60;84.50;;;;;;10515793;28;20129;-65
2021/12/17 13:32:35;;;;;;;1.90;0.30;;;21.60;84.60;;;;;;10526109;28;20155;-65
2021/12/17 13:37:36;;;;;;;0.63;0.20;;;21.50;84.60;;;;;;10510556;28;20044;-66
2021/12/17 13:42:38;;;;;;;2.63;0.30;;;21.50;84.60;;;;;;10505055;28;20047;-66
2021/12/17 13:47:40;;;;;;;1.77;0.40;;;21.50;84.80;;;;;;10517577;28;20052;-67
2021/12/17 13:52:41;;;;;;;1.25;0.30;;;21.50;84.80;;;;;;10514962;28;20146;-65
2021/12/17 13:57:43;;;;;;;3.47;0.30;;;21.40;84.80;;;;;;10519060;28;20048;-66
2021/12/17 14:02:44;;;;;;;3.40;0.38;;;21.20;84.90;;;;;;10569208;22;20056;-65
2021/12/17 14:07:45;;;;;;;2.25;0.43;;;21.00;85.30;;;;;;10579682;28;20116;-66
2021/12/17 14:12:47;;;;;;;1.20;0.45;;;20.80;85.60;;;;;;10579743;28;20048;-66
2021/12/17 14:17:48;;;;;;;1.40;0.40;;;20.60;85.80;;;;;;10579974;28;20047;-65
2021/12/17 14:22:50;;;;;;;3.67;0.35;;;20.40;86.10;;;;;;10556812;28;20056;-65
2021/12/17 14:27:51;;;;;;;1.50;0.60;;;20.30;86.30;;;;;;10561210;28;20056;-65
2021/12/17 14:32:53;;;;;;;2.53;0.20;;;20.10;86.50;;;;;;10547627;28;20051;-65
2021/12/17 14:37:54;;;;;;;2.33;0.43;;;20.00;86.60;;;;;;10579122;28;20047;-66
2021/12/17 14:42:57;;;;;;;0.88;0.40;;;19.90;86.90;;;;;;10579022;28;20488;-66
2021/12/17 14:47:59;;;;;;;1.25;0.35;;;19.80;87.00;;;;;;10579095;28;20093;-66
2021/12/17 15:03:42;;;;;;;1.60;0.40;;;19.50;87.90;;;;;;10501577;28;20503;-66
2021/12/17 15:08:43;;;;;;;0.98;0.40;;;19.40;87.40;;;;;;10536854;28;20511;-66
2021/12/17 15:13:44;;;;;;;2.10;0.40;;;19.30;87.50;;;;;;10536199;28;20055;-66
2021/12/17 15:18:46;;;;;;;0.60;0.30;;;19.20;87.60;;;;;;10536528;28;20040;-66
2021/12/17 15:23:47;;;;;;;1.98;0.30;;;19.20;87.70;;;;;;10503269;28;20056;-66
2021/12/17 15:28:49;;;;;;;0.85;0.40;;;19.10;87.80;;;;;;10494361;28;20052;-66
2021/12/17 15:33:50;;;;;;;1.33;0.32;;;19.00;87.80;;;;;;10493820;28;20048;-66
2021/12/17 15:38:52;;;;;;;1.00;0.52;;;19.00;87.90;;;;;;10500908;28;20048;-66
2021/12/17 15:43:53;;;;;;;0.77;0.40;;;18.90;87.90;;;;;;10501235;28;20413;-66
2021/12/17 15:48:55;;;;;;;1.38;0.43;;;18.90;88.00;;;;;;10501226;28;20405;-65
2021/12/17 15:53:56;;;;;;;1.15;0.50;;;18.80;88.10;;;;;;10501387;28;20140;-66
2021/12/17 15:58:58;;;;;;;0.60;0.30;;;18.70;88.10;;;;;;10500674;28;20044;-66
2021/12/17 16:03:59;;;;;;;1.80;0.50;;;18.70;88.20;;;;;;10500216;28;20460;-66
2021/12/17 16:09:06;;;;;;;0.80;0.30;;;18.60;88.20;;;;;;10500592;28;20056;-66
2021/12/17 16:24:51;;;;;;;0.50;0.30;;;18.50;88.40;;;;;;10443340;28;20524;-66
2021/12/17 16:29:54;;;;;;;1.52;0.40;;;18.40;88.40;;;;;;10499861;28;20052;-66
2021/12/17 16:34:55;;;;;;;0.50;0.40;;;18.40;88.50;;;;;;10499278;28;20058;-66
2021/12/17 16:39:57;;;;;;;0.55;0.30;;;18.40;88.50;;;;;;10499604;28;20098;-66
2021/12/17 16:45:21;;;;;;;0.82;0.50;;;18.30;88.50;;;;;;10499326;28;20048;-66
2021/12/17 16:50:26;;;;;;;1.95;0.70;;;18.30;88.60;;;;;;10498446;28;20071;-66
2021/12/17 16:55:28;;;;;;;0.80;0.35;;;18.20;88.60;;;;;;10498801;28;20137;-66
2021/12/17 17:00:30;;;;;;;1.45;0.43;;;18.20;88.60;;;;;;10498101;28;20496;-66
2021/12/17 17:05:32;;;;;;;0.50;0.20;;;18.10;88.60;;;;;;10498310;28;20412;-66
2021/12/17 17:10:34;;;;;;;0.52;0.30;;;18.10;88.70;;;;;;10498494;28;20041;-66
2021/12/17 17:15:35;;;;;;;0.80;0.40;;;18.10;89.10;;;;;;10498099;28;20059;-66
2021/12/17 17:20:37;;;;;;;0.30;0.30;;;18.00;88.80;;;;;;10497756;28;20033;-66
2021/12/17 17:25:38;;;;;;;0.50;0.30;;;18.00;88.80;;;;;;10497738;28;20045;-66
2021/12/17 17:30:41;;;;;;;0.40;0.30;;;18.00;88.90;;;;;;10497176;28;20041;-66
2021/12/17 17:35:42;;;;;;;0.40;0.30;;;17.90;88.90;;;;;;10497295;28;20052;-66
2021/12/17 17:40:44;;;;;;;0.80;0.20;;;17.90;88.90;;;;;;10496850;28;20071;-66
2021/12/17 17:45:45;;;;;;;0.73;0.40;;;17.90;89.00;;;;;;10496392;28;20052;-66
2021/12/17 17:50:47;;;;;;;0.60;0.40;;;17.80;89.00;;;;;;10496642;28;20052;-66
2021/12/17 17:55:48;;;;;;;0.40;0.30;;;17.80;89.00;;;;;;10496821;28;20074;-66
2021/12/17 18:00:50;;;;;;;0.63;0.32;;;17.80;89.00;;;;;;10494928;28;20048;-66
2021/12/17 18:05:53;;;;;;;0.52;0.30;;;17.70;89.00;;;;;;10496135;28;20101;-65
2021/12/17 18:10:55;;;;;;;0.57;0.28;;;17.70;89.10;;;;;;10496260;28;20044;-65
2021/12/17 18:15:56;;;;;;;0.47;0.30;;;17.70;89.10;;;;;;10495977;28;20049;-65
2021/12/17 18:20:57;;;;;;;0.60;0.30;;;17.60;89.10;;;;;;10495674;28;20052;-65
2021/12/17 18:25:59;;;;;;;0.77;0.30;;;17.60;89.10;;;;;;10495891;28;20052;-65
2021/12/17 18:31:00;;;;;;;1.00;0.40;;;17.60;89.10;;;;;;10495208;28;20052;-65
2021/12/17 18:36:02;;;;;;;0.45;0.20;;;17.60;89.20;;;;;;10495740;28;20049;-65
2021/12/17 18:41:08;;;;;;;0.80;0.32;;;17.50;89.20;;;;;;10495472;28;20052;-66
2021/12/17 18:46:10;;;;;;;;;;;17.50;89.20;;;;;;10495689;28;20136;-66
2021/12/17 18:51:12;;;;;;;0.32;0.30;;;17.50;89.00;;;;;;10495811;28;19920;-66
2021/12/17 18:56:13;;;;;;;0.50;0.30;;;17.50;89.30;;;;;;10494921;28;20481;-66
2021/12/17 19:01:15;;;;;;;0.52;0.30;;;17.40;89.30;;;;;;10494548;28;20531;-66
2021/12/17 19:06:17;;;;;;;0.50;0.30;;;17.40;89.40;;;;;;10494818;28;20511;-66
2021/12/17 19:11:18;;;;;;;0.38;0.20;;;17.40;89.40;;;;;;10497775;28;20041;-66
2021/12/17 19:16:20;;;;;;;0.95;0.30;;;17.40;89.50;;;;;;10502771;28;20053;-66
2021/12/17 19:21:33;;;;;;;0.35;0.30;;;17.30;89.40;;;;;;10502508;28;20056;-66
2021/12/17 19:26:35;;;;;;;0.60;0.30;;;17.30;89.50;;;;;;10502521;28;20052;-66
2021/12/17 19:31:36;;;;;;;0.43;0.40;;;17.30;89.50;;;;;;10501724;28;20059;-66
2021/12/17 19:36:38;;;;;;;0.73;0.20;;;17.30;89.50;;;;;;10501900;28;20521;-66
2021/12/17 19:41:39;;;;;;;1.17;0.38;;;17.20;89.50;;;;;;10501831;28;20047;-66
2021/12/17 19:46:48;;;;;;;0.43;0.30;;;17.20;89.50;;;;;;10501542;28;20201;-66
2021/12/17 19:51:50;;;;;;;0.60;0.30;;;17.20;89.60;;;;;;10501470;28;20420;-66
2021/12/17 19:56:52;;;;;;;0.70;0.20;;;17.20;89.60;;;;;;10501105;28;20068;-66
2021/12/17 20:01:55;;;;;;;0.40;0.22;;;17.10;89.60;;;;;;10500487;28;20048;-66
2021/12/17 20:06:57;;;;;;;0.70;0.30;;;17.10;89.60;;;;;;10500839;28;20044;-66
2021/12/17 20:11:59;;;;;;;0.40;0.28;;;17.10;89.60;;;;;;10500700;28;20091;-66
2021/12/17 20:17:01;;;;;;;0.30;0.30;;;17.10;89.60;;;;;;10500523;28;20106;-66
2021/12/17 20:22:02;;;;;;;0.68;0.50;;;17.00;89.60;;;;;;10498988;28;20452;-66
2021/12/17 20:27:04;;;;;;;0.40;0.20;;;17.00;89.70;;;;;;10500254;28;20489;-66
2021/12/17 20:32:06;;;;;;;0.63;0.22;;;17.00;89.70;;;;;;10499411;28;20050;-66
2021/12/17 20:37:08;;;;;;;0.20;0.15;;;17.00;89.70;;;;;;10499714;28;20049;-66
2021/12/17 20:42:15;;;;;;;0.60;0.30;;;16.90;90.10;;;;;;10499573;28;20051;-66
2021/12/17 20:47:16;;;;;;;0.30;0.20;;;16.90;89.70;;;;;;10499176;28;20045;-65
2021/12/17 20:52:17;;;;;;;0.20;0.20;;;16.90;89.70;;;;;;10499120;28;20040;-66
2021/12/17 20:57:19;;;;;;;0.77;0.30;;;16.90;89.80;;;;;;10498692;28;20075;-66
2021/12/17 21:02:20;;;;;;;0.60;0.30;;;16.90;90.10;;;;;;10498271;28;20051;-66
2021/12/17 21:07:22;;;;;;;0.77;0.30;;;16.90;89.80;;;;;;10498271;28;20135;-66
2021/12/17 21:12:25;;;;;;;0.30;0.20;;;16.80;89.80;;;;;;10498127;28;20048;-66
2021/12/17 21:17:26;;;;;;;0.30;0.20;;;16.80;89.80;;;;;;10497888;28;20058;-66
2021/12/17 21:22:28;;;;;;;0.30;0.20;;;16.80;89.90;;;;;;10497550;28;20044;-66
2021/12/17 21:27:29;;;;;;;0.28;0.20;;;16.80;89.90;;;;;;10497816;28;20052;-66
2021/12/17 21:32:31;;;;;;;0.57;0.30;;;16.80;89.90;;;;;;10497348;28;20056;-66
2021/12/17 21:37:32;;;;;;;0.50;0.30;;;16.70;89.90;;;;;;10497190;28;20048;-66
2021/12/17 21:42:33;;;;;;;0.90;0.50;;;16.70;89.90;;;;;;10496720;28;20056;-66
2021/12/17 21:47:35;;;;;;;0.38;0.30;;;16.70;89.90;;;;;;10496949;28;20094;-66
2021/12/17 21:52:36;;;;;;;0.30;0.20;;;16.70;90.20;;;;;;10496454;28;20053;-66
2021/12/17 21:57:38;;;;;;;0.30;0.30;;;16.70;90.00;;;;;;10496258;28;20056;-66
2021/12/17 22:02:39;;;;;;;0.65;0.28;;;16.60;90.00;;;;;;10495575;28;20059;-66
2021/12/17 22:07:48;;;;;;;0.50;0.30;;;16.60;90.00;;;;;;10496113;28;20048;-66
2021/12/17 22:12:50;;;;;;;0.30;0.30;;;16.60;90.00;;;;;;10496070;28;20049;-66
2021/12/17 22:17:54;;;;;;;0.55;0.40;;;16.60;90.00;;;;;;10496031;28;20055;-66
2021/12/17 22:22:56;;;;;;;0.52;0.40;;;16.60;90.00;;;;;;10495676;28;20048;-65
2021/12/17 22:27:57;;;;;;;1.00;0.50;;;16.60;90.00;;;;;;10495624;28;20051;-65
2021/12/17 22:32:59;;;;;;;0.60;0.50;;;16.50;90.00;;;;;;10495184;28;20056;-65
2021/12/17 22:38:03;;;;;;;0.73;0.43;;;16.50;90.00;;;;;;10495303;28;20135;-65
2021/12/17 22:43:04;;;;;;;0.80;0.50;;;16.50;90.00;;;;;;10495451;28;20045;-65
2021/12/17 22:48:06;;;;;;;1.27;0.50;;;16.50;90.00;;;;;;10501960;28;20053;-65
2021/12/17 22:53:07;;;;;;;0.57;0.32;;;16.50;90.00;;;;;;10503726;28;20052;-65
2021/12/17 22:58:09;;;;;;;0.70;0.50;;;16.40;90.00;;;;;;10503458;28;20059;-65
2021/12/17 23:03:10;;;;;;;0.60;0.47;;;16.40;90.00;;;;;;10502793;28;20045;-65
2021/12/17 23:08:15;;;;;;;0.75;0.40;;;16.40;90.00;;;;;;10503147;28;20059;-65
2021/12/17 23:13:16;;;;;;;1.00;0.63;;;16.40;90.00;;;;;;10503164;28;20048;-65
2021/12/17 23:18:18;;;;;;;0.80;0.60;;;16.40;90.00;;;;;;10502757;28;20056;-65
2021/12/17 23:23:19;;;;;;;1.00;0.73;;;16.40;90.00;;;;;;10502353;28;20075;-65
2021/12/17 23:28:21;;;;;;;0.93;0.55;;;16.30;90.00;;;;;;10502202;28;20052;-66
2021/12/17 23:33:44;;;;;;;0.73;0.63;;;16.30;90.00;;;;;;10501756;28;20413;-65
2021/12/17 23:38:45;;;;;;;1.33;0.80;;;16.30;90.00;;;;;;10501854;28;20472;-65
2021/12/17 23:43:47;;;;;;;1.02;0.60;;;16.30;90.00;;;;;;10501475;28;20508;-65
2021/12/17 23:48:48;;;;;;;1.00;0.52;;;16.30;90.10;;;;;;10501353;28;20551;-65
2021/12/17 23:53:50;;;;;;;1.48;0.80;;;16.30;90.10;;;;;;10501412;28;20055;-65
2021/12/17 23:58:51;;;;;;;0.98;0.80;;;16.20;90.00;;;;;;10501023;28;20044;-65
